createdAt,value
2022-12-06T00:02:17.512Z,13.55
2022-12-06T00:04:48.288Z,11.55
2022-12-06T00:07:17.828Z,9.85
2022-12-06T00:09:47.193Z,10.48
2022-12-06T00:12:16.884Z,9.68
2022-12-06T00:14:46.276Z,10.95
2022-12-06T00:17:15.760Z,7.93
2022-12-06T00:19:45.237Z,3.05
2022-12-06T00:22:14.882Z,3.20
2022-12-06T00:24:44.200Z,2.47
2022-12-06T00:27:15.089Z,4.35
2022-12-06T00:29:44.988Z,2.78
2022-12-06T00:32:19.218Z,4.95
2022-12-06T00:34:49.222Z,5.97
2022-12-06T00:37:22.081Z,5.20
2022-12-06T00:39:51.587Z,4.18
2022-12-06T00:42:20.781Z,4.97
2022-12-06T00:44:50.731Z,2.80
2022-12-06T00:47:20.224Z,2.90
2022-12-06T00:49:50.210Z,2.63
2022-12-06T00:52:19.575Z,2.58
2022-12-06T00:54:49.083Z,2.50
2022-12-06T00:57:18.663Z,2.55
2022-12-06T00:59:48.040Z,3.47
2022-12-06T01:02:17.615Z,3.15
2022-12-06T01:04:47.025Z,4.60
2022-12-06T01:07:16.741Z,4.47
2022-12-06T01:09:46.079Z,4.60
2022-12-06T01:12:15.696Z,4.47
2022-12-06T01:14:46.573Z,4.97
2022-12-06T01:17:16.053Z,3.70
2022-12-06T01:19:45.352Z,3.03
2022-12-06T01:22:17.335Z,3.47
2022-12-06T01:24:49.257Z,6.43
2022-12-06T01:27:18.512Z,6.28
2022-12-06T01:29:47.731Z,3.87
2022-12-06T01:32:17.151Z,2.17
2022-12-06T01:34:46.638Z,2.80
2022-12-06T01:37:19.936Z,2.67
2022-12-06T01:39:49.589Z,2.03
2022-12-06T01:42:19.178Z,4.80
2022-12-06T01:44:50.762Z,2.33
2022-12-06T01:47:26.520Z,2.58
2022-12-06T01:50:14.645Z,3.03
2022-12-06T01:52:53.583Z,3.17
2022-12-06T01:55:31.259Z,6.05
2022-12-06T01:58:07.028Z,5.67
2022-12-06T02:00:37.044Z,7.13
2022-12-06T02:03:12.758Z,6.60
2022-12-06T02:05:45.931Z,4.85
2022-12-06T02:08:16.043Z,10.60
2022-12-06T02:10:45.508Z,8.88
2022-12-06T02:13:15.157Z,8.15
2022-12-06T02:15:51.248Z,6.78
2022-12-06T02:18:30.634Z,9.38
2022-12-06T02:21:17.609Z,10.88
2022-12-06T02:24:10.022Z,12.90
2022-12-06T02:26:51.821Z,9.52
2022-12-06T02:29:47.414Z,8.30
2022-12-06T02:32:20.230Z,9.68
2022-12-06T02:35:16.837Z,5.43
2022-12-06T02:37:59.795Z,11.02
2022-12-06T02:40:38.154Z,6.55
2022-12-06T02:43:19.086Z,11.63
2022-12-06T02:45:56.604Z,9.77
2022-12-06T02:48:27.932Z,7.63
2022-12-06T02:51:08.138Z,5.05
2022-12-06T02:53:42.253Z,7.05
2022-12-06T02:56:13.516Z,6.28
2022-12-06T02:58:43.068Z,7.38
2022-12-06T03:01:26.192Z,3.25
2022-12-06T03:04:07.350Z,4.60
2022-12-06T03:07:03.684Z,8.25
2022-12-06T03:09:56.041Z,5.32
2022-12-06T03:12:56.580Z,3.75
2022-12-06T03:15:35.190Z,3.33
2022-12-06T03:18:21.312Z,3.47
2022-12-06T03:20:59.487Z,7.97
2022-12-06T03:23:35.237Z,3.75
2022-12-06T03:26:07.010Z,5.90
2022-12-06T03:28:39.342Z,3.60
2022-12-06T03:31:13.758Z,2.97
2022-12-06T03:33:50.827Z,4.35
2022-12-06T03:36:21.469Z,5.88
2022-12-06T03:39:01.689Z,3.95
2022-12-06T03:41:38.293Z,4.10
2022-12-06T03:44:08.203Z,3.72
2022-12-06T03:46:42.735Z,4.40
2022-12-06T03:49:19.161Z,7.80
2022-12-06T03:51:49.603Z,7.30
2022-12-06T03:54:19.613Z,6.65
2022-12-06T03:56:49.021Z,7.03
2022-12-06T03:59:18.755Z,11.50
2022-12-06T04:01:48.314Z,15.95
2022-12-06T04:04:18.089Z,15.02
2022-12-06T04:06:47.550Z,20.77
2022-12-06T04:09:35.020Z,18.02
2022-12-06T04:12:24.587Z,14.23
2022-12-06T04:14:54.166Z,8.93
2022-12-06T04:17:41.763Z,19.90
2022-12-06T04:20:12.074Z,16.13
2022-12-06T04:23:00.002Z,18.75
2022-12-06T04:25:29.603Z,19.60
2022-12-06T04:28:17.395Z,17.60
2022-12-06T04:31:05.267Z,17.65
2022-12-06T04:33:53.580Z,14.88
2022-12-06T04:36:41.078Z,15.40
2022-12-06T04:39:12.424Z,9.57
2022-12-06T04:42:02.343Z,14.82
2022-12-06T04:44:31.794Z,14.68
2022-12-06T04:47:01.260Z,14.02
2022-12-06T04:49:30.894Z,10.25
2022-12-06T04:52:00.301Z,9.87
2022-12-06T04:54:31.361Z,11.48
2022-12-06T04:57:01.179Z,10.63
2022-12-06T04:59:31.350Z,9.45
2022-12-06T05:02:00.970Z,7.35
2022-12-06T05:04:30.210Z,10.52
2022-12-06T05:07:00.037Z,13.38
2022-12-06T05:09:29.579Z,15.73
2022-12-06T05:11:59.517Z,6.70
2022-12-06T05:14:29.680Z,14.25
2022-12-06T05:17:00.031Z,12.55
2022-12-06T05:19:30.247Z,9.35
2022-12-06T05:21:59.499Z,14.18
2022-12-06T05:24:29.128Z,14.25
2022-12-06T05:26:58.361Z,15.73
2022-12-06T05:29:28.087Z,13.75
2022-12-06T05:31:57.637Z,16.02
2022-12-06T05:34:27.324Z,14.63
2022-12-06T05:36:56.913Z,18.23
2022-12-06T05:39:26.765Z,12.50
2022-12-06T05:41:56.089Z,15.20
2022-12-06T05:44:25.838Z,13.98
2022-12-06T05:46:55.137Z,14.95
2022-12-06T05:49:24.890Z,12.88
2022-12-06T05:51:54.379Z,14.73
2022-12-06T05:54:23.961Z,15.17
2022-12-06T05:56:53.479Z,14.27
2022-12-06T05:59:23.145Z,17.33
2022-12-06T06:01:52.672Z,15.80
2022-12-06T06:04:22.245Z,15.45
2022-12-06T06:06:52.564Z,15.93
2022-12-06T06:09:22.473Z,17.20
2022-12-06T06:11:52.857Z,15.05
2022-12-06T06:14:22.779Z,16.23
2022-12-06T06:16:53.451Z,14.50
2022-12-06T06:19:25.322Z,13.18
2022-12-06T06:21:54.906Z,16.25
2022-12-06T06:24:24.849Z,17.60
2022-12-06T06:26:54.291Z,12.93
2022-12-06T06:29:23.379Z,14.63
2022-12-06T06:31:52.940Z,17.00
2022-12-06T06:34:22.512Z,15.00
2022-12-06T06:36:53.246Z,15.23
2022-12-06T06:39:22.742Z,15.15
2022-12-06T06:41:52.035Z,14.93
2022-12-06T06:44:21.406Z,15.18
2022-12-06T06:46:50.641Z,14.75
2022-12-06T06:49:20.073Z,12.63
2022-12-06T06:51:49.319Z,15.25
2022-12-06T06:54:19.453Z,13.50
2022-12-06T06:56:48.493Z,14.32
2022-12-06T06:59:17.965Z,13.50
2022-12-06T07:01:47.459Z,12.53
2022-12-06T07:04:17.226Z,15.03
2022-12-06T07:06:46.795Z,17.35
2022-12-06T07:09:16.535Z,14.35
2022-12-06T07:11:46.158Z,11.80
2022-12-06T07:14:15.671Z,12.35
2022-12-06T07:16:45.123Z,13.97
2022-12-06T07:19:14.537Z,13.07
2022-12-06T07:21:43.648Z,11.93
2022-12-06T07:24:13.732Z,11.10
2022-12-06T07:26:42.995Z,11.90
2022-12-06T07:29:12.349Z,13.55
2022-12-06T07:31:42.179Z,11.20
2022-12-06T07:34:11.859Z,5.47
2022-12-06T07:36:41.144Z,6.07
2022-12-06T07:39:14.704Z,12.45
2022-12-06T07:42:03.082Z,12.55
2022-12-06T07:45:03.114Z,10.80
2022-12-06T07:47:41.000Z,11.38
2022-12-06T07:50:17.844Z,8.63
2022-12-06T07:52:49.762Z,10.27
2022-12-06T07:55:19.512Z,9.27
2022-12-06T07:57:49.080Z,10.13
2022-12-06T08:00:20.320Z,12.50
2022-12-06T08:02:49.898Z,10.65
2022-12-06T08:05:19.514Z,12.60
2022-12-06T08:07:49.549Z,9.02
2022-12-06T08:10:19.148Z,10.63
2022-12-06T08:12:48.548Z,7.18
2022-12-06T08:15:18.171Z,6.30
2022-12-06T08:17:47.875Z,7.57
2022-12-06T08:20:17.526Z,8.73
2022-12-06T08:22:46.957Z,8.43
2022-12-06T08:25:16.721Z,8.70
2022-12-06T08:27:46.046Z,8.52
2022-12-06T08:30:15.974Z,7.93
2022-12-06T08:32:45.151Z,8.00
2022-12-06T08:35:15.302Z,10.32
2022-12-06T08:37:44.986Z,8.40
2022-12-06T08:40:14.735Z,8.15
2022-12-06T08:42:47.941Z,7.13
2022-12-06T08:45:17.531Z,7.57
2022-12-06T08:47:46.804Z,9.00
2022-12-06T08:50:16.464Z,7.68
2022-12-06T08:52:45.635Z,8.77
2022-12-06T08:55:15.945Z,9.23
2022-12-06T08:57:45.565Z,9.70
2022-12-06T09:00:15.568Z,10.48
2022-12-06T09:02:44.860Z,9.82
2022-12-06T09:05:14.103Z,7.82
2022-12-06T09:07:43.737Z,8.05
2022-12-06T09:10:13.516Z,8.50
2022-12-06T09:12:43.359Z,6.18
2022-12-06T09:15:15.413Z,9.23
2022-12-06T09:17:44.646Z,8.45
2022-12-06T09:20:19.139Z,7.53
2022-12-06T09:22:48.779Z,9.23
2022-12-06T09:25:18.873Z,9.40
2022-12-06T09:27:49.103Z,9.70
2022-12-06T09:30:18.651Z,8.63
2022-12-06T09:32:49.585Z,6.95
2022-12-06T09:35:24.755Z,8.23
2022-12-06T09:37:54.985Z,8.55
2022-12-06T09:40:43.113Z,11.45
2022-12-06T09:43:33.515Z,8.57
2022-12-06T09:46:08.479Z,6.82
2022-12-06T09:49:03.660Z,9.90
2022-12-06T09:52:04.685Z,7.78
2022-12-06T09:54:40.025Z,8.82
2022-12-06T09:57:34.011Z,7.82
2022-12-06T10:00:22.318Z,10.38
2022-12-06T10:03:28.983Z,8.67
2022-12-06T10:06:06.683Z,9.23
2022-12-06T10:09:03.569Z,10.80
2022-12-06T10:11:45.418Z,8.77
2022-12-06T10:14:32.076Z,10.85
2022-12-06T10:17:10.396Z,13.63
2022-12-06T10:20:01.822Z,10.07
2022-12-06T10:22:49.721Z,13.02
2022-12-06T10:25:28.743Z,10.33
2022-12-06T10:28:23.603Z,14.20
2022-12-06T10:30:57.331Z,11.45
2022-12-06T10:33:32.756Z,10.30
2022-12-06T10:36:06.464Z,12.90
2022-12-06T10:39:27.849Z,10.90
2022-12-06T10:42:22.092Z,10.80
2022-12-06T10:45:38.956Z,10.88
2022-12-06T10:48:31.544Z,13.07
2022-12-06T10:51:12.450Z,11.68
2022-12-06T10:53:51.339Z,13.27
2022-12-06T10:56:30.911Z,10.75
2022-12-06T10:59:21.650Z,10.73
2022-12-06T11:01:53.430Z,12.18
2022-12-06T11:04:35.938Z,12.25
2022-12-06T11:07:17.661Z,10.90
2022-12-06T11:09:52.061Z,11.20
2022-12-06T11:12:33.128Z,15.40
2022-12-06T11:15:18.475Z,13.70
2022-12-06T11:17:58.018Z,12.90
2022-12-06T11:20:39.797Z,10.90
2022-12-06T11:23:15.389Z,12.23
2022-12-06T11:26:08.022Z,10.77
2022-12-06T11:28:45.046Z,12.88
2022-12-06T11:31:49.858Z,11.07
2022-12-06T11:34:22.219Z,10.98
2022-12-06T11:36:59.792Z,16.67
2022-12-06T11:39:32.247Z,45.63
2022-12-06T11:42:05.762Z,47.33
2022-12-06T11:44:51.140Z,39.53
2022-12-06T11:47:24.409Z,28.67
2022-12-06T11:49:58.609Z,18.92
2022-12-06T11:52:40.314Z,23.53
2022-12-06T11:55:17.174Z,20.70
2022-12-06T11:57:57.339Z,25.67
2022-12-06T12:00:27.608Z,22.70
2022-12-06T12:02:58.713Z,23.85
2022-12-06T12:05:35.320Z,22.40
2022-12-06T12:08:27.243Z,19.42
2022-12-06T12:11:05.727Z,19.20
2022-12-06T12:13:48.318Z,19.17
2022-12-06T12:16:22.067Z,21.02
2022-12-06T12:18:56.605Z,17.15
2022-12-06T12:21:44.122Z,15.43
2022-12-06T12:25:03.216Z,15.80
2022-12-06T12:27:45.631Z,15.35
2022-12-06T12:30:34.601Z,18.15
2022-12-06T12:33:16.860Z,29.52
2022-12-06T12:35:49.919Z,19.48
2022-12-06T12:38:42.027Z,20.25
2022-12-06T12:41:34.913Z,19.67
2022-12-06T12:44:37.079Z,20.20
2022-12-06T12:47:07.639Z,19.00
2022-12-06T12:49:40.018Z,18.77
2022-12-06T12:52:31.807Z,16.60
2022-12-06T12:55:23.478Z,17.40
2022-12-06T12:58:00.328Z,18.33
2022-12-06T13:00:31.110Z,19.53
2022-12-06T13:03:14.210Z,16.48
2022-12-06T13:05:55.216Z,18.08
2022-12-06T13:08:31.703Z,14.05
2022-12-06T13:11:03.423Z,13.88
2022-12-06T13:13:40.760Z,13.10
2022-12-06T13:16:16.601Z,15.93
2022-12-06T13:18:58.879Z,14.00
2022-12-06T13:21:42.324Z,17.08
2022-12-06T13:24:16.874Z,13.60
2022-12-06T13:26:50.823Z,13.18
2022-12-06T13:29:19.881Z,12.75
2022-12-06T13:31:52.094Z,15.13
2022-12-06T13:34:59.576Z,13.32
2022-12-06T13:37:36.267Z,14.32
2022-12-06T13:40:07.696Z,12.32
2022-12-06T13:42:39.269Z,14.38
2022-12-06T13:45:46.458Z,13.40
2022-12-06T13:48:37.260Z,14.00
2022-12-06T13:51:30.821Z,13.82
2022-12-06T13:54:05.921Z,14.90
2022-12-06T13:56:34.799Z,13.85
2022-12-06T13:59:13.836Z,15.38
2022-12-06T14:01:56.084Z,12.90
2022-12-06T14:09:48.699Z,17.35
2022-12-06T14:12:27.455Z,12.98
2022-12-06T14:15:01.321Z,14.82
2022-12-06T14:20:32.981Z,14.50
2022-12-06T14:23:02.020Z,15.07
2022-12-06T14:25:32.261Z,14.73
2022-12-06T14:28:08.640Z,15.48
2022-12-06T14:30:38.150Z,14.65
2022-12-06T14:33:27.512Z,16.65
2022-12-06T14:35:57.822Z,13.75
2022-12-06T14:38:31.862Z,14.40
2022-12-06T14:41:38.846Z,14.57
2022-12-06T14:44:16.806Z,15.18
2022-12-06T14:46:48.323Z,13.48
2022-12-06T14:49:41.071Z,15.35
2022-12-06T14:52:43.154Z,15.18
2022-12-06T14:55:20.548Z,14.30
2022-12-06T14:57:52.451Z,13.70
2022-12-06T15:00:28.158Z,15.25
2022-12-06T15:03:07.643Z,13.18
2022-12-06T15:05:38.127Z,15.70
2022-12-06T15:08:28.360Z,15.63
2022-12-06T15:11:01.806Z,15.45
2022-12-06T15:13:31.794Z,14.13
2022-12-06T15:16:18.563Z,13.88
2022-12-06T15:19:01.842Z,14.50
2022-12-06T15:21:31.089Z,15.32
2022-12-06T15:23:59.750Z,14.23
2022-12-06T15:26:29.005Z,14.18
2022-12-06T15:28:58.092Z,14.48
2022-12-06T15:31:30.943Z,16.50
2022-12-06T15:33:59.930Z,12.95
2022-12-06T15:36:32.139Z,15.40
2022-12-06T15:39:01.562Z,12.55
2022-12-06T15:41:31.293Z,14.07
2022-12-06T15:44:00.355Z,14.10
2022-12-06T15:46:30.840Z,15.17
2022-12-06T15:49:00.780Z,13.23
2022-12-06T15:51:30.639Z,12.53
2022-12-06T15:54:00.901Z,12.25
2022-12-06T15:56:31.719Z,11.82
2022-12-06T15:59:00.608Z,12.90
2022-12-06T16:01:46.626Z,11.90
2022-12-06T16:04:25.312Z,7.18
2022-12-06T16:07:02.191Z,9.20
2022-12-06T16:09:51.291Z,10.60
2022-12-06T16:12:23.118Z,17.95
2022-12-06T16:14:59.533Z,10.83
2022-12-06T16:17:28.748Z,11.23
2022-12-06T16:24:11.430Z,8.90
2022-12-06T16:26:34.624Z,6.90
2022-12-06T16:29:06.153Z,7.28
2022-12-06T16:31:38.481Z,5.28
2022-12-06T16:34:09.755Z,6.45
2022-12-06T16:37:02.116Z,7.03
2022-12-06T16:39:33.104Z,7.80
2022-12-06T16:42:02.920Z,5.60
2022-12-06T16:44:32.632Z,11.73
2022-12-06T16:47:01.646Z,11.80
2022-12-06T16:49:48.888Z,10.77
2022-12-06T16:52:19.327Z,11.63
2022-12-06T16:54:48.364Z,11.30
2022-12-06T16:57:20.538Z,12.80
2022-12-06T16:59:49.770Z,10.32
2022-12-06T17:02:30.803Z,7.32
2022-12-06T17:05:07.071Z,8.70
2022-12-06T17:07:37.766Z,6.25
2022-12-06T17:10:07.221Z,6.70
2022-12-06T17:12:36.329Z,5.95
2022-12-06T17:15:06.071Z,4.50
2022-12-06T17:17:35.044Z,3.95
2022-12-06T17:20:04.022Z,6.80
2022-12-06T17:22:32.993Z,5.70
2022-12-06T17:25:02.365Z,6.03
2022-12-06T17:27:31.188Z,11.50
2022-12-06T17:30:00.572Z,21.17
2022-12-06T17:32:30.974Z,7.47
2022-12-06T17:35:00.982Z,7.38
2022-12-06T17:37:29.905Z,5.82
2022-12-06T17:39:58.885Z,7.43
2022-12-06T17:42:46.421Z,4.90
2022-12-06T17:45:15.446Z,46.22
2022-12-06T17:47:44.182Z,4.85
2022-12-06T17:50:13.282Z,3.38
2022-12-06T17:52:42.093Z,5.05
2022-12-06T17:55:15.951Z,6.10
2022-12-06T17:57:44.882Z,5.55
2022-12-06T18:00:14.236Z,5.03
2022-12-06T18:02:43.887Z,7.78
2022-12-06T18:05:15.119Z,4.70
2022-12-06T18:07:44.020Z,6.22
2022-12-06T18:10:12.972Z,5.53
2022-12-06T18:12:41.751Z,6.22
2022-12-06T18:15:30.661Z,7.22
2022-12-06T18:17:59.552Z,9.30
2022-12-06T18:20:28.370Z,12.35
2022-12-06T18:22:57.254Z,16.17
2022-12-06T18:25:25.929Z,11.20
2022-12-06T18:27:54.785Z,7.20
2022-12-06T18:30:23.727Z,4.43
2022-12-06T18:32:52.540Z,6.38
2022-12-06T18:35:21.297Z,4.53
2022-12-06T18:37:50.960Z,5.38
2022-12-06T18:40:20.406Z,4.82
2022-12-06T18:42:49.873Z,4.45
2022-12-06T18:45:18.859Z,4.25
2022-12-06T18:47:48.581Z,4.43
2022-12-06T18:50:17.403Z,3.15
2022-12-06T18:52:46.602Z,3.75
2022-12-06T18:55:15.226Z,3.97
2022-12-06T18:57:44.192Z,3.13
2022-12-06T19:00:13.681Z,3.15
2022-12-06T19:02:42.771Z,5.28
2022-12-06T19:05:11.778Z,4.50
2022-12-06T19:07:40.805Z,4.40
2022-12-06T19:10:10.108Z,3.30
2022-12-06T19:12:39.110Z,5.17
2022-12-06T19:15:08.578Z,4.47
2022-12-06T19:17:37.469Z,5.40
2022-12-06T19:20:06.672Z,4.25
2022-12-06T19:22:36.115Z,4.70
2022-12-06T19:25:05.003Z,5.63
2022-12-06T19:27:34.067Z,5.40
2022-12-06T19:30:03.712Z,5.63
2022-12-06T19:32:33.517Z,6.40
2022-12-06T19:35:08.374Z,4.35
2022-12-06T19:37:38.455Z,3.90
2022-12-06T19:40:08.376Z,4.38
2022-12-06T19:42:55.522Z,6.65
2022-12-06T19:45:25.512Z,5.53
2022-12-06T19:47:54.270Z,6.18
2022-12-06T19:50:23.209Z,7.47
2022-12-06T19:52:52.139Z,7.07
2022-12-06T19:55:21.174Z,8.60
2022-12-06T19:57:50.003Z,8.35
2022-12-06T20:00:22.765Z,6.83
2022-12-06T20:02:51.982Z,3.85
2022-12-06T20:05:20.805Z,4.00
2022-12-06T20:07:49.767Z,3.97
2022-12-06T20:10:18.596Z,3.97
2022-12-06T20:12:47.873Z,4.25
2022-12-06T20:15:16.813Z,4.05
2022-12-06T20:17:46.273Z,4.75
2022-12-06T20:20:15.128Z,4.57
2022-12-06T20:22:44.053Z,4.40
2022-12-06T20:25:15.025Z,7.43
2022-12-06T20:27:53.081Z,6.43
2022-12-06T20:30:23.880Z,7.00
2022-12-06T20:32:52.928Z,5.13
2022-12-06T20:35:21.862Z,6.00
2022-12-06T20:37:53.996Z,4.93
2022-12-06T20:40:28.239Z,5.25
2022-12-06T20:42:59.970Z,3.05
2022-12-06T20:45:28.793Z,4.85
2022-12-06T20:47:57.930Z,4.53
2022-12-06T20:50:26.876Z,5.15
2022-12-06T20:52:56.053Z,5.40
2022-12-06T20:55:24.773Z,3.38
2022-12-06T20:57:53.702Z,6.15
2022-12-06T21:00:23.441Z,5.90
2022-12-06T21:02:52.769Z,5.18
2022-12-06T21:05:21.622Z,7.25
2022-12-06T21:07:50.881Z,4.80
2022-12-06T21:10:19.667Z,5.00
2022-12-06T21:12:48.733Z,6.05
2022-12-06T21:15:17.722Z,4.88
2022-12-06T21:17:46.642Z,4.97
2022-12-06T21:20:15.375Z,6.30
2022-12-06T21:22:44.432Z,5.22
2022-12-06T21:25:14.868Z,7.35
2022-12-06T21:27:43.977Z,5.80
2022-12-06T21:30:13.148Z,5.10
2022-12-06T21:32:42.246Z,5.70
2022-12-06T21:35:14.943Z,6.10
2022-12-06T21:37:43.928Z,5.68
2022-12-06T21:40:13.416Z,5.65
2022-12-06T21:42:42.931Z,5.55
2022-12-06T21:45:12.165Z,4.63
2022-12-06T21:47:41.120Z,5.40
2022-12-06T21:50:10.610Z,5.53
2022-12-06T21:52:40.124Z,5.47
2022-12-06T21:55:15.013Z,5.47
2022-12-06T21:57:44.454Z,6.60
2022-12-06T22:00:14.031Z,8.13
2022-12-06T22:02:44.795Z,5.73
2022-12-06T22:05:13.967Z,7.70
2022-12-06T22:07:42.735Z,9.60
2022-12-06T22:10:12.448Z,6.20
2022-12-06T22:12:41.542Z,4.50
2022-12-06T22:15:10.786Z,7.57
2022-12-06T22:17:39.834Z,5.78
2022-12-06T22:20:09.177Z,5.80
2022-12-06T22:22:37.882Z,6.10
2022-12-06T22:25:08.089Z,4.43
2022-12-06T22:27:37.352Z,6.03
2022-12-06T22:30:06.964Z,4.57
2022-12-06T22:32:36.069Z,4.63
2022-12-06T22:35:05.106Z,6.93
2022-12-06T22:37:33.934Z,5.43
2022-12-06T22:40:03.128Z,4.53
2022-12-06T22:42:36.775Z,5.03
2022-12-06T22:45:06.333Z,5.97
2022-12-06T22:47:35.205Z,5.40
2022-12-06T22:50:04.489Z,5.68
2022-12-06T22:52:33.348Z,7.53
2022-12-06T22:55:02.581Z,5.47
2022-12-06T22:57:31.432Z,6.03
2022-12-06T23:00:00.749Z,5.32
2022-12-06T23:02:29.787Z,6.53
2022-12-06T23:04:59.032Z,6.80
2022-12-06T23:07:27.884Z,7.18
2022-12-06T23:09:57.205Z,7.03
2022-12-06T23:12:25.849Z,4.60
2022-12-06T23:14:54.960Z,6.05
2022-12-06T23:17:23.877Z,6.75
2022-12-06T23:19:52.781Z,4.53
2022-12-06T23:22:21.509Z,4.63
2022-12-06T23:24:51.622Z,6.88
2022-12-06T23:27:20.483Z,4.78
2022-12-06T23:29:49.575Z,7.00
2022-12-06T23:32:20.299Z,4.03
2022-12-06T23:34:49.416Z,6.32
2022-12-06T23:37:18.102Z,5.82
2022-12-06T23:39:47.116Z,7.75
2022-12-06T23:42:15.858Z,4.47
2022-12-06T23:44:44.749Z,7.63
2022-12-06T23:47:13.448Z,5.63
2022-12-06T23:49:42.719Z,5.70
2022-12-06T23:52:11.632Z,5.70
2022-12-06T23:54:40.866Z,4.95
2022-12-06T23:57:09.682Z,6.13
2022-12-06T23:59:38.727Z,7.38
